sensor_id;sensor_type;location;lat;lon;timestamp;P1;durP1;ratioP1;P2;durP2;ratioP2
37355;SDS011;48747;50.250;18.848;2023-06-14T00:00:59;17.48;;;9.70;;
37355;SDS011;48747;50.250;18.848;2023-06-14T00:03:04;17.73;;;9.83;;
37355;SDS011;48747;50.250;18.848;2023-06-14T00:05:10;14.93;;;8.68;;
37355;SDS011;48747;50.250;18.848;2023-06-14T00:07:16;17.23;;;10.03;;
37355;SDS011;48747;50.250;18.848;2023-06-14T00:09:19;19.05;;;11.35;;
37355;SDS011;48747;50.250;18.848;2023-06-14T00:11:22;21.75;;;12.47;;
37355;SDS011;48747;50.250;18.848;2023-06-14T00:13:27;19.92;;;13.03;;
37355;SDS011;48747;50.250;18.848;2023-06-14T00:15:30;19.92;;;12.98;;
37355;SDS011;48747;50.250;18.848;2023-06-14T00:17:34;20.80;;;12.10;;
37355;SDS011;48747;50.250;18.848;2023-06-14T00:19:37;18.98;;;12.03;;
37355;SDS011;48747;50.250;18.848;2023-06-14T00:21:41;19.37;;;11.12;;
37355;SDS011;48747;50.250;18.848;2023-06-14T00:23:44;16.35;;;10.65;;
37355;SDS011;48747;50.250;18.848;2023-06-14T00:25:47;18.95;;;11.33;;
37355;SDS011;48747;50.250;18.848;2023-06-14T00:27:51;17.65;;;12.37;;
37355;SDS011;48747;50.250;18.848;2023-06-14T00:29:54;18.17;;;10.95;;
37355;SDS011;48747;50.250;18.848;2023-06-14T00:31:59;16.70;;;10.85;;
37355;SDS011;48747;50.250;18.848;2023-06-14T00:34:02;19.10;;;11.83;;
37355;SDS011;48747;50.250;18.848;2023-06-14T00:36:05;18.70;;;11.20;;
37355;SDS011;48747;50.250;18.848;2023-06-14T00:38:08;16.35;;;10.58;;
37355;SDS011;48747;50.250;18.848;2023-06-14T00:40:11;16.05;;;10.88;;
37355;SDS011;48747;50.250;18.848;2023-06-14T00:42:24;17.45;;;10.25;;
37355;SDS011;48747;50.250;18.848;2023-06-14T00:44:28;17.27;;;11.00;;
37355;SDS011;48747;50.250;18.848;2023-06-14T00:46:31;18.12;;;11.45;;
37355;SDS011;48747;50.250;18.848;2023-06-14T00:48:34;16.73;;;11.78;;
37355;SDS011;48747;50.250;18.848;2023-06-14T00:50:39;16.65;;;10.75;;
37355;SDS011;48747;50.250;18.848;2023-06-14T00:52:43;20.23;;;11.33;;
37355;SDS011;48747;50.250;18.848;2023-06-14T00:54:46;15.53;;;10.75;;
37355;SDS011;48747;50.250;18.848;2023-06-14T00:56:49;19.00;;;11.40;;
37355;SDS011;48747;50.250;18.848;2023-06-14T00:58:52;15.80;;;10.38;;
37355;SDS011;48747;50.250;18.848;2023-06-14T01:00:55;18.67;;;10.82;;
37355;SDS011;48747;50.250;18.848;2023-06-14T01:02:59;14.23;;;9.43;;
37355;SDS011;48747;50.250;18.848;2023-06-14T01:05:04;14.70;;;9.53;;
37355;SDS011;48747;50.250;18.848;2023-06-14T01:07:12;14.15;;;9.53;;
37355;SDS011;48747;50.250;18.848;2023-06-14T01:09:37;17.97;;;10.53;;
37355;SDS011;48747;50.250;18.848;2023-06-14T01:14:08;15.23;;;9.80;;
37355;SDS011;48747;50.250;18.848;2023-06-14T01:16:13;16.90;;;9.75;;
37355;SDS011;48747;50.250;18.848;2023-06-14T01:18:17;16.02;;;10.53;;
37355;SDS011;48747;50.250;18.848;2023-06-14T01:20:20;16.62;;;10.98;;
37355;SDS011;48747;50.250;18.848;2023-06-14T01:22:30;17.75;;;11.30;;
37355;SDS011;48747;50.250;18.848;2023-06-14T01:24:30;17.20;;;11.33;;
37355;SDS011;48747;50.250;18.848;2023-06-14T01:26:35;15.95;;;10.78;;
37355;SDS011;48747;50.250;18.848;2023-06-14T01:28:39;15.88;;;11.08;;
37355;SDS011;48747;50.250;18.848;2023-06-14T01:30:42;16.50;;;11.03;;
37355;SDS011;48747;50.250;18.848;2023-06-14T01:32:49;16.73;;;10.75;;
37355;SDS011;48747;50.250;18.848;2023-06-14T01:34:53;15.58;;;11.03;;
37355;SDS011;48747;50.250;18.848;2023-06-14T01:36:56;17.37;;;10.60;;
37355;SDS011;48747;50.250;18.848;2023-06-14T01:39:00;19.12;;;10.98;;
37355;SDS011;48747;50.250;18.848;2023-06-14T01:41:05;16.42;;;10.55;;
37355;SDS011;48747;50.250;18.848;2023-06-14T01:43:08;15.32;;;10.88;;
37355;SDS011;48747;50.250;18.848;2023-06-14T01:45:15;17.27;;;9.88;;
37355;SDS011;48747;50.250;18.848;2023-06-14T01:47:19;14.18;;;10.13;;
37355;SDS011;48747;50.250;18.848;2023-06-14T01:49:23;17.37;;;10.43;;
37355;SDS011;48747;50.250;18.848;2023-06-14T01:51:26;13.72;;;9.53;;
37355;SDS011;48747;50.250;18.848;2023-06-14T01:53:29;15.78;;;10.13;;
37355;SDS011;48747;50.250;18.848;2023-06-14T01:55:32;18.07;;;10.95;;
37355;SDS011;48747;50.250;18.848;2023-06-14T01:57:37;14.87;;;9.70;;
37355;SDS011;48747;50.250;18.848;2023-06-14T01:59:40;17.10;;;10.48;;
37355;SDS011;48747;50.250;18.848;2023-06-14T02:01:43;19.35;;;9.40;;
37355;SDS011;48747;50.250;18.848;2023-06-14T02:03:47;18.23;;;10.23;;
37355;SDS011;48747;50.250;18.848;2023-06-14T02:05:52;15.85;;;9.75;;
37355;SDS011;48747;50.250;18.848;2023-06-14T02:07:56;14.18;;;10.15;;
37355;SDS011;48747;50.250;18.848;2023-06-14T02:10:02;16.42;;;10.28;;
37355;SDS011;48747;50.250;18.848;2023-06-14T02:12:04;16.30;;;10.08;;
37355;SDS011;48747;50.250;18.848;2023-06-14T02:14:08;18.15;;;10.63;;
37355;SDS011;48747;50.250;18.848;2023-06-14T02:16:13;17.12;;;10.65;;
37355;SDS011;48747;50.250;18.848;2023-06-14T02:18:18;16.20;;;10.53;;
37355;SDS011;48747;50.250;18.848;2023-06-14T02:20:22;15.60;;;10.40;;
37355;SDS011;48747;50.250;18.848;2023-06-14T02:22:26;18.20;;;11.55;;
37355;SDS011;48747;50.250;18.848;2023-06-14T02:24:29;14.90;;;10.43;;
37355;SDS011;48747;50.250;18.848;2023-06-14T02:26:32;15.55;;;10.60;;
37355;SDS011;48747;50.250;18.848;2023-06-14T02:28:35;16.30;;;10.60;;
37355;SDS011;48747;50.250;18.848;2023-06-14T02:30:38;19.57;;;10.65;;
37355;SDS011;48747;50.250;18.848;2023-06-14T02:32:42;18.10;;;10.65;;
37355;SDS011;48747;50.250;18.848;2023-06-14T02:34:45;19.37;;;11.60;;
37355;SDS011;48747;50.250;18.848;2023-06-14T02:36:49;21.57;;;12.82;;
37355;SDS011;48747;50.250;18.848;2023-06-14T02:38:53;17.42;;;11.30;;
37355;SDS011;48747;50.250;18.848;2023-06-14T02:40:58;16.37;;;10.63;;
37355;SDS011;48747;50.250;18.848;2023-06-14T02:43:03;19.57;;;11.25;;
37355;SDS011;48747;50.250;18.848;2023-06-14T02:45:06;17.17;;;10.03;;
37355;SDS011;48747;50.250;18.848;2023-06-14T02:47:10;15.78;;;10.25;;
37355;SDS011;48747;50.250;18.848;2023-06-14T02:49:13;14.18;;;10.45;;
37355;SDS011;48747;50.250;18.848;2023-06-14T02:51:16;15.32;;;10.45;;
37355;SDS011;48747;50.250;18.848;2023-06-14T02:53:19;14.83;;;10.23;;
37355;SDS011;48747;50.250;18.848;2023-06-14T02:55:22;16.35;;;10.48;;
37355;SDS011;48747;50.250;18.848;2023-06-14T02:57:25;21.23;;;10.60;;
37355;SDS011;48747;50.250;18.848;2023-06-14T02:59:28;14.10;;;10.15;;
37355;SDS011;48747;50.250;18.848;2023-06-14T03:01:31;17.45;;;10.93;;
37355;SDS011;48747;50.250;18.848;2023-06-14T03:03:39;16.35;;;10.50;;
37355;SDS011;48747;50.250;18.848;2023-06-14T03:05:44;16.10;;;10.38;;
37355;SDS011;48747;50.250;18.848;2023-06-14T03:07:51;17.32;;;10.53;;
37355;SDS011;48747;50.250;18.848;2023-06-14T03:09:55;17.42;;;10.70;;
37355;SDS011;48747;50.250;18.848;2023-06-14T03:11:59;16.48;;;10.38;;
37355;SDS011;48747;50.250;18.848;2023-06-14T03:14:02;16.20;;;11.10;;
37355;SDS011;48747;50.250;18.848;2023-06-14T03:16:05;16.85;;;10.53;;
37355;SDS011;48747;50.250;18.848;2023-06-14T03:18:10;18.62;;;11.20;;
37355;SDS011;48747;50.250;18.848;2023-06-14T03:20:13;16.30;;;11.30;;
37355;SDS011;48747;50.250;18.848;2023-06-14T03:22:17;16.95;;;10.53;;
37355;SDS011;48747;50.250;18.848;2023-06-14T03:24:20;17.30;;;9.85;;
37355;SDS011;48747;50.250;18.848;2023-06-14T03:26:23;17.45;;;11.15;;
37355;SDS011;48747;50.250;18.848;2023-06-14T03:28:26;17.00;;;10.80;;
37355;SDS011;48747;50.250;18.848;2023-06-14T03:30:29;18.23;;;11.28;;
37355;SDS011;48747;50.250;18.848;2023-06-14T03:32:33;21.25;;;13.15;;
37355;SDS011;48747;50.250;18.848;2023-06-14T03:34:39;20.97;;;12.80;;
37355;SDS011;48747;50.250;18.848;2023-06-14T03:36:42;20.30;;;10.60;;
37355;SDS011;48747;50.250;18.848;2023-06-14T03:38:45;18.32;;;10.53;;
37355;SDS011;48747;50.250;18.848;2023-06-14T03:40:48;18.82;;;11.25;;
37355;SDS011;48747;50.250;18.848;2023-06-14T03:42:51;16.52;;;10.95;;
37355;SDS011;48747;50.250;18.848;2023-06-14T03:44:55;17.40;;;12.18;;
37355;SDS011;48747;50.250;18.848;2023-06-14T03:46:58;19.25;;;11.12;;
37355;SDS011;48747;50.250;18.848;2023-06-14T03:49:01;18.23;;;10.98;;
37355;SDS011;48747;50.250;18.848;2023-06-14T03:51:05;19.20;;;11.55;;
37355;SDS011;48747;50.250;18.848;2023-06-14T03:53:08;16.07;;;10.75;;
37355;SDS011;48747;50.250;18.848;2023-06-14T03:55:11;21.90;;;11.38;;
37355;SDS011;48747;50.250;18.848;2023-06-14T03:57:15;19.90;;;11.10;;
37355;SDS011;48747;50.250;18.848;2023-06-14T03:59:20;19.57;;;12.53;;
37355;SDS011;48747;50.250;18.848;2023-06-14T04:01:23;21.15;;;12.18;;
37355;SDS011;48747;50.250;18.848;2023-06-14T04:03:27;23.42;;;12.37;;
37355;SDS011;48747;50.250;18.848;2023-06-14T04:05:30;23.27;;;12.90;;
37355;SDS011;48747;50.250;18.848;2023-06-14T04:07:34;25.05;;;13.08;;
37355;SDS011;48747;50.250;18.848;2023-06-14T04:09:42;24.98;;;13.43;;
37355;SDS011;48747;50.250;18.848;2023-06-14T04:11:45;29.87;;;14.80;;
37355;SDS011;48747;50.250;18.848;2023-06-14T04:13:48;33.10;;;16.25;;
37355;SDS011;48747;50.250;18.848;2023-06-14T04:15:51;35.85;;;16.00;;
37355;SDS011;48747;50.250;18.848;2023-06-14T04:17:54;32.63;;;14.43;;
37355;SDS011;48747;50.250;18.848;2023-06-14T04:19:58;24.80;;;13.40;;
37355;SDS011;48747;50.250;18.848;2023-06-14T04:22:02;25.12;;;13.43;;
37355;SDS011;48747;50.250;18.848;2023-06-14T04:24:05;23.05;;;13.45;;
37355;SDS011;48747;50.250;18.848;2023-06-14T04:26:10;19.90;;;12.18;;
37355;SDS011;48747;50.250;18.848;2023-06-14T04:28:13;20.17;;;11.93;;
37355;SDS011;48747;50.250;18.848;2023-06-14T04:30:20;18.92;;;12.13;;
37355;SDS011;48747;50.250;18.848;2023-06-14T04:32:25;20.15;;;11.73;;
37355;SDS011;48747;50.250;18.848;2023-06-14T04:34:30;19.25;;;12.78;;
37355;SDS011;48747;50.250;18.848;2023-06-14T04:36:35;19.50;;;12.40;;
37355;SDS011;48747;50.250;18.848;2023-06-14T04:38:43;18.92;;;11.40;;
37355;SDS011;48747;50.250;18.848;2023-06-14T04:40:47;20.32;;;11.93;;
37355;SDS011;48747;50.250;18.848;2023-06-14T04:42:52;17.80;;;10.60;;
37355;SDS011;48747;50.250;18.848;2023-06-14T04:44:56;16.55;;;11.65;;
37355;SDS011;48747;50.250;18.848;2023-06-14T04:46:59;17.35;;;11.83;;
37355;SDS011;48747;50.250;18.848;2023-06-14T04:49:02;19.12;;;11.88;;
37355;SDS011;48747;50.250;18.848;2023-06-14T04:51:06;20.37;;;12.50;;
37355;SDS011;48747;50.250;18.848;2023-06-14T04:53:10;18.55;;;11.22;;
37355;SDS011;48747;50.250;18.848;2023-06-14T04:55:14;23.02;;;11.83;;
37355;SDS011;48747;50.250;18.848;2023-06-14T04:57:17;19.02;;;12.07;;
37355;SDS011;48747;50.250;18.848;2023-06-14T04:59:21;21.00;;;13.18;;
37355;SDS011;48747;50.250;18.848;2023-06-14T05:01:25;23.50;;;12.90;;
37355;SDS011;48747;50.250;18.848;2023-06-14T05:03:28;22.45;;;12.33;;
37355;SDS011;48747;50.250;18.848;2023-06-14T05:05:31;24.67;;;12.47;;
37355;SDS011;48747;50.250;18.848;2023-06-14T05:07:35;20.30;;;12.23;;
37355;SDS011;48747;50.250;18.848;2023-06-14T05:09:38;18.98;;;12.30;;
37355;SDS011;48747;50.250;18.848;2023-06-14T05:11:42;20.68;;;11.80;;
37355;SDS011;48747;50.250;18.848;2023-06-14T05:13:45;17.02;;;11.30;;
37355;SDS011;48747;50.250;18.848;2023-06-14T05:15:53;17.50;;;11.97;;
37355;SDS011;48747;50.250;18.848;2023-06-14T05:17:53;22.80;;;11.65;;
37355;SDS011;48747;50.250;18.848;2023-06-14T05:19:57;20.45;;;11.35;;
37355;SDS011;48747;50.250;18.848;2023-06-14T05:22:00;18.32;;;11.43;;
37355;SDS011;48747;50.250;18.848;2023-06-14T05:24:04;17.52;;;11.18;;
37355;SDS011;48747;50.250;18.848;2023-06-14T05:26:07;18.00;;;11.60;;
37355;SDS011;48747;50.250;18.848;2023-06-14T05:28:10;19.07;;;11.70;;
37355;SDS011;48747;50.250;18.848;2023-06-14T05:30:14;18.37;;;11.20;;
37355;SDS011;48747;50.250;18.848;2023-06-14T05:32:18;18.73;;;11.73;;
37355;SDS011;48747;50.250;18.848;2023-06-14T05:34:21;23.98;;;12.70;;
37355;SDS011;48747;50.250;18.848;2023-06-14T05:36:24;21.55;;;12.90;;
37355;SDS011;48747;50.250;18.848;2023-06-14T05:38:29;21.05;;;13.00;;
37355;SDS011;48747;50.250;18.848;2023-06-14T05:40:32;19.48;;;12.80;;
37355;SDS011;48747;50.250;18.848;2023-06-14T05:42:35;19.65;;;12.47;;
37355;SDS011;48747;50.250;18.848;2023-06-14T05:44:38;22.17;;;13.65;;
37355;SDS011;48747;50.250;18.848;2023-06-14T05:46:43;23.30;;;13.90;;
37355;SDS011;48747;50.250;18.848;2023-06-14T05:48:46;24.55;;;14.40;;
37355;SDS011;48747;50.250;18.848;2023-06-14T05:50:50;23.57;;;13.88;;
37355;SDS011;48747;50.250;18.848;2023-06-14T05:52:53;23.62;;;13.18;;
37355;SDS011;48747;50.250;18.848;2023-06-14T05:54:59;23.57;;;13.48;;
37355;SDS011;48747;50.250;18.848;2023-06-14T06:00:06;22.45;;;14.18;;
37355;SDS011;48747;50.250;18.848;2023-06-14T06:02:14;22.87;;;13.95;;
37355;SDS011;48747;50.250;18.848;2023-06-14T06:06:56;23.25;;;12.60;;
37355;SDS011;48747;50.250;18.848;2023-06-14T06:08:58;21.82;;;12.10;;
37355;SDS011;48747;50.250;18.848;2023-06-14T06:11:06;28.23;;;13.55;;
37355;SDS011;48747;50.250;18.848;2023-06-14T06:13:17;22.62;;;13.70;;
37355;SDS011;48747;50.250;18.848;2023-06-14T06:15:18;21.77;;;12.37;;
37355;SDS011;48747;50.250;18.848;2023-06-14T06:17:21;26.87;;;14.53;;
37355;SDS011;48747;50.250;18.848;2023-06-14T06:19:25;27.70;;;14.13;;
37355;SDS011;48747;50.250;18.848;2023-06-14T06:21:42;22.95;;;14.73;;
37355;SDS011;48747;50.250;18.848;2023-06-14T06:23:42;23.65;;;14.47;;
37355;SDS011;48747;50.250;18.848;2023-06-14T06:25:45;28.65;;;15.20;;
37355;SDS011;48747;50.250;18.848;2023-06-14T06:27:49;26.50;;;15.48;;
37355;SDS011;48747;50.250;18.848;2023-06-14T06:29:53;23.55;;;14.85;;
37355;SDS011;48747;50.250;18.848;2023-06-14T06:31:56;22.10;;;14.38;;
37355;SDS011;48747;50.250;18.848;2023-06-14T06:33:59;22.50;;;13.20;;
37355;SDS011;48747;50.250;18.848;2023-06-14T06:36:02;32.00;;;14.83;;
37355;SDS011;48747;50.250;18.848;2023-06-14T06:40:32;29.10;;;13.55;;
37355;SDS011;48747;50.250;18.848;2023-06-14T06:42:35;24.02;;;13.03;;
37355;SDS011;48747;50.250;18.848;2023-06-14T06:44:45;20.52;;;13.22;;
37355;SDS011;48747;50.250;18.848;2023-06-14T06:46:45;21.65;;;12.13;;
37355;SDS011;48747;50.250;18.848;2023-06-14T06:48:53;23.55;;;13.00;;
37355;SDS011;48747;50.250;18.848;2023-06-14T06:50:54;26.52;;;14.10;;
37355;SDS011;48747;50.250;18.848;2023-06-14T06:52:57;26.00;;;13.20;;
37355;SDS011;48747;50.250;18.848;2023-06-14T06:55:01;25.45;;;14.30;;
37355;SDS011;48747;50.250;18.848;2023-06-14T06:57:05;29.65;;;14.60;;
37355;SDS011;48747;50.250;18.848;2023-06-14T06:59:09;25.77;;;13.50;;
37355;SDS011;48747;50.250;18.848;2023-06-14T07:01:12;21.57;;;13.78;;
37355;SDS011;48747;50.250;18.848;2023-06-14T07:03:15;22.30;;;13.38;;
37355;SDS011;48747;50.250;18.848;2023-06-14T07:05:20;24.10;;;14.23;;
37355;SDS011;48747;50.250;18.848;2023-06-14T07:07:23;28.52;;;13.93;;
37355;SDS011;48747;50.250;18.848;2023-06-14T07:09:27;24.67;;;14.95;;
37355;SDS011;48747;50.250;18.848;2023-06-14T07:11:34;25.37;;;14.90;;
37355;SDS011;48747;50.250;18.848;2023-06-14T07:13:37;23.45;;;14.60;;
37355;SDS011;48747;50.250;18.848;2023-06-14T07:15:40;24.55;;;14.33;;
37355;SDS011;48747;50.250;18.848;2023-06-14T07:17:43;24.87;;;14.63;;
37355;SDS011;48747;50.250;18.848;2023-06-14T07:19:46;23.38;;;12.78;;
37355;SDS011;48747;50.250;18.848;2023-06-14T07:21:51;25.45;;;14.47;;
37355;SDS011;48747;50.250;18.848;2023-06-14T07:23:57;25.10;;;14.45;;
37355;SDS011;48747;50.250;18.848;2023-06-14T07:26:02;21.68;;;13.88;;
37355;SDS011;48747;50.250;18.848;2023-06-14T07:28:13;26.57;;;15.43;;
37355;SDS011;48747;50.250;18.848;2023-06-14T07:30:13;24.23;;;15.00;;
37355;SDS011;48747;50.250;18.848;2023-06-14T07:32:20;25.27;;;15.28;;
37355;SDS011;48747;50.250;18.848;2023-06-14T07:34:23;24.60;;;14.28;;
37355;SDS011;48747;50.250;18.848;2023-06-14T07:36:26;24.12;;;13.93;;
37355;SDS011;48747;50.250;18.848;2023-06-14T07:38:36;24.70;;;14.28;;
37355;SDS011;48747;50.250;18.848;2023-06-14T07:40:41;23.83;;;14.00;;
37355;SDS011;48747;50.250;18.848;2023-06-14T07:42:46;25.00;;;14.20;;
37355;SDS011;48747;50.250;18.848;2023-06-14T07:47:02;26.05;;;13.50;;
37355;SDS011;48747;50.250;18.848;2023-06-14T07:49:05;18.10;;;11.33;;
37355;SDS011;48747;50.250;18.848;2023-06-14T07:51:08;21.02;;;11.05;;
37355;SDS011;48747;50.250;18.848;2023-06-14T07:53:11;105.50;;;12.55;;
37355;SDS011;48747;50.250;18.848;2023-06-14T07:55:16;28.95;;;10.00;;
37355;SDS011;48747;50.250;18.848;2023-06-14T07:57:19;20.00;;;10.05;;
37355;SDS011;48747;50.250;18.848;2023-06-14T07:59:22;13.40;;;8.90;;
37355;SDS011;48747;50.250;18.848;2023-06-14T08:01:25;12.98;;;8.58;;
37355;SDS011;48747;50.250;18.848;2023-06-14T08:03:29;10.63;;;7.05;;
37355;SDS011;48747;50.250;18.848;2023-06-14T08:05:32;12.82;;;7.40;;
37355;SDS011;48747;50.250;18.848;2023-06-14T08:07:36;12.85;;;7.15;;
37355;SDS011;48747;50.250;18.848;2023-06-14T08:09:40;12.20;;;6.53;;
37355;SDS011;48747;50.250;18.848;2023-06-14T08:11:43;11.38;;;6.12;;
37355;SDS011;48747;50.250;18.848;2023-06-14T08:13:47;9.45;;;4.58;;
37355;SDS011;48747;50.250;18.848;2023-06-14T08:15:50;6.97;;;4.20;;
37355;SDS011;48747;50.250;18.848;2023-06-14T08:17:53;8.20;;;4.17;;
37355;SDS011;48747;50.250;18.848;2023-06-14T08:19:56;9.68;;;4.60;;
37355;SDS011;48747;50.250;18.848;2023-06-14T08:22:00;8.78;;;4.20;;
37355;SDS011;48747;50.250;18.848;2023-06-14T08:24:05;6.72;;;3.83;;
37355;SDS011;48747;50.250;18.848;2023-06-14T08:26:09;5.75;;;4.30;;
37355;SDS011;48747;50.250;18.848;2023-06-14T08:28:12;8.50;;;4.28;;
37355;SDS011;48747;50.250;18.848;2023-06-14T08:30:15;5.42;;;3.67;;
37355;SDS011;48747;50.250;18.848;2023-06-14T08:32:18;6.00;;;4.10;;
37355;SDS011;48747;50.250;18.848;2023-06-14T08:34:21;5.83;;;4.08;;
37355;SDS011;48747;50.250;18.848;2023-06-14T08:36:27;9.55;;;4.62;;
37355;SDS011;48747;50.250;18.848;2023-06-14T08:38:30;7.15;;;5.15;;
37355;SDS011;48747;50.250;18.848;2023-06-14T08:40:33;7.72;;;4.75;;
37355;SDS011;48747;50.250;18.848;2023-06-14T08:42:40;5.55;;;4.70;;
37355;SDS011;48747;50.250;18.848;2023-06-14T08:44:44;5.70;;;4.60;;
37355;SDS011;48747;50.250;18.848;2023-06-14T08:46:47;5.22;;;3.80;;
37355;SDS011;48747;50.250;18.848;2023-06-14T08:48:51;6.65;;;5.03;;
37355;SDS011;48747;50.250;18.848;2023-06-14T08:50:59;6.37;;;5.05;;
37355;SDS011;48747;50.250;18.848;2023-06-14T08:53:05;5.87;;;4.45;;
37355;SDS011;48747;50.250;18.848;2023-06-14T08:55:11;7.58;;;4.00;;
37355;SDS011;48747;50.250;18.848;2023-06-14T08:57:16;8.08;;;4.30;;
37355;SDS011;48747;50.250;18.848;2023-06-14T08:59:21;6.22;;;4.65;;
37355;SDS011;48747;50.250;18.848;2023-06-14T09:01:36;6.97;;;4.40;;
37355;SDS011;48747;50.250;18.848;2023-06-14T09:03:40;8.78;;;4.20;;
37355;SDS011;48747;50.250;18.848;2023-06-14T09:05:43;7.25;;;4.90;;
37355;SDS011;48747;50.250;18.848;2023-06-14T09:07:47;7.90;;;5.05;;
37355;SDS011;48747;50.250;18.848;2023-06-14T09:10:04;6.53;;;5.65;;
37355;SDS011;48747;50.250;18.848;2023-06-14T09:12:00;7.55;;;5.90;;
37355;SDS011;48747;50.250;18.848;2023-06-14T09:14:03;7.35;;;5.40;;
37355;SDS011;48747;50.250;18.848;2023-06-14T09:16:06;7.83;;;5.75;;
37355;SDS011;48747;50.250;18.848;2023-06-14T09:18:10;6.97;;;5.90;;
37355;SDS011;48747;50.250;18.848;2023-06-14T09:20:13;7.53;;;5.90;;
37355;SDS011;48747;50.250;18.848;2023-06-14T09:22:20;7.53;;;5.30;;
37355;SDS011;48747;50.250;18.848;2023-06-14T09:24:25;6.95;;;5.45;;
37355;SDS011;48747;50.250;18.848;2023-06-14T09:26:32;9.30;;;6.15;;
37355;SDS011;48747;50.250;18.848;2023-06-14T09:28:33;7.47;;;5.60;;
37355;SDS011;48747;50.250;18.848;2023-06-14T09:30:37;10.90;;;6.03;;
37355;SDS011;48747;50.250;18.848;2023-06-14T09:32:40;8.23;;;6.00;;
37355;SDS011;48747;50.250;18.848;2023-06-14T09:34:45;7.83;;;5.87;;
37355;SDS011;48747;50.250;18.848;2023-06-14T09:36:48;10.93;;;5.90;;
37355;SDS011;48747;50.250;18.848;2023-06-14T09:38:59;15.90;;;6.40;;
37355;SDS011;48747;50.250;18.848;2023-06-14T09:41:04;7.22;;;4.97;;
37355;SDS011;48747;50.250;18.848;2023-06-14T09:43:07;7.60;;;5.87;;
37355;SDS011;48747;50.250;18.848;2023-06-14T09:45:11;5.78;;;5.05;;
37355;SDS011;48747;50.250;18.848;2023-06-14T09:47:16;8.40;;;6.00;;
37355;SDS011;48747;50.250;18.848;2023-06-14T09:49:19;9.35;;;6.25;;
37355;SDS011;48747;50.250;18.848;2023-06-14T09:51:23;9.20;;;6.83;;
37355;SDS011;48747;50.250;18.848;2023-06-14T09:53:29;12.00;;;7.75;;
37355;SDS011;48747;50.250;18.848;2023-06-14T09:55:40;9.93;;;7.87;;
37355;SDS011;48747;50.250;18.848;2023-06-14T09:57:40;12.95;;;8.25;;
37355;SDS011;48747;50.250;18.848;2023-06-14T09:59:45;13.70;;;8.73;;
37355;SDS011;48747;50.250;18.848;2023-06-14T10:01:52;14.13;;;8.45;;
37355;SDS011;48747;50.250;18.848;2023-06-14T10:04:01;11.85;;;8.30;;
37355;SDS011;48747;50.250;18.848;2023-06-14T10:06:08;11.65;;;8.60;;
37355;SDS011;48747;50.250;18.848;2023-06-14T10:08:15;12.70;;;8.88;;
37355;SDS011;48747;50.250;18.848;2023-06-14T10:10:21;8.35;;;6.47;;
37355;SDS011;48747;50.250;18.848;2023-06-14T10:12:24;11.60;;;8.90;;
37355;SDS011;48747;50.250;18.848;2023-06-14T10:14:28;14.25;;;9.98;;
37355;SDS011;48747;50.250;18.848;2023-06-14T10:16:34;12.78;;;9.30;;
37355;SDS011;48747;50.250;18.848;2023-06-14T10:19:04;13.75;;;9.70;;
37355;SDS011;48747;50.250;18.848;2023-06-14T10:21:18;12.45;;;9.33;;
37355;SDS011;48747;50.250;18.848;2023-06-14T10:23:40;14.47;;;9.85;;
37355;SDS011;48747;50.250;18.848;2023-06-14T10:25:44;13.05;;;9.15;;
37355;SDS011;48747;50.250;18.848;2023-06-14T10:27:48;13.40;;;9.38;;
37355;SDS011;48747;50.250;18.848;2023-06-14T10:32:03;15.08;;;10.78;;
37355;SDS011;48747;50.250;18.848;2023-06-14T10:34:06;19.40;;;11.55;;
37355;SDS011;48747;50.250;18.848;2023-06-14T10:36:24;14.43;;;10.53;;
37355;SDS011;48747;50.250;18.848;2023-06-14T10:38:29;14.00;;;11.03;;
37355;SDS011;48747;50.250;18.848;2023-06-14T10:40:34;19.73;;;12.90;;
37355;SDS011;48747;50.250;18.848;2023-06-14T10:42:38;13.90;;;10.58;;
37355;SDS011;48747;50.250;18.848;2023-06-14T10:44:54;14.15;;;10.90;;
37355;SDS011;48747;50.250;18.848;2023-06-14T10:46:59;14.47;;;9.88;;
37355;SDS011;48747;50.250;18.848;2023-06-14T10:49:03;13.83;;;9.10;;
37355;SDS011;48747;50.250;18.848;2023-06-14T10:51:17;12.40;;;8.98;;
37355;SDS011;48747;50.250;18.848;2023-06-14T10:53:23;13.32;;;9.75;;
37355;SDS011;48747;50.250;18.848;2023-06-14T10:55:26;14.65;;;9.73;;
37355;SDS011;48747;50.250;18.848;2023-06-14T10:57:32;12.53;;;8.83;;
37355;SDS011;48747;50.250;18.848;2023-06-14T10:59:36;16.80;;;9.55;;
37355;SDS011;48747;50.250;18.848;2023-06-14T11:01:42;12.95;;;8.85;;
37355;SDS011;48747;50.250;18.848;2023-06-14T11:04:09;10.25;;;7.05;;
37355;SDS011;48747;50.250;18.848;2023-06-14T11:06:14;9.65;;;7.33;;
37355;SDS011;48747;50.250;18.848;2023-06-14T11:10:46;12.85;;;8.45;;
37355;SDS011;48747;50.250;18.848;2023-06-14T11:12:50;11.15;;;8.15;;
37355;SDS011;48747;50.250;18.848;2023-06-14T11:14:56;10.70;;;8.03;;
37355;SDS011;48747;50.250;18.848;2023-06-14T11:16:59;10.18;;;8.50;;
37355;SDS011;48747;50.250;18.848;2023-06-14T11:19:02;11.80;;;7.92;;
37355;SDS011;48747;50.250;18.848;2023-06-14T11:21:05;12.35;;;9.50;;
37355;SDS011;48747;50.250;18.848;2023-06-14T11:23:10;14.10;;;9.75;;
37355;SDS011;48747;50.250;18.848;2023-06-14T11:25:14;12.05;;;7.97;;
37355;SDS011;48747;50.250;18.848;2023-06-14T11:27:17;7.55;;;5.70;;
37355;SDS011;48747;50.250;18.848;2023-06-14T11:29:21;7.75;;;6.37;;
37355;SDS011;48747;50.250;18.848;2023-06-14T11:31:24;9.70;;;7.15;;
37355;SDS011;48747;50.250;18.848;2023-06-14T11:33:28;8.25;;;6.40;;
37355;SDS011;48747;50.250;18.848;2023-06-14T11:35:31;9.48;;;6.80;;
37355;SDS011;48747;50.250;18.848;2023-06-14T11:37:35;8.68;;;6.17;;
37355;SDS011;48747;50.250;18.848;2023-06-14T11:39:43;10.45;;;7.17;;
37355;SDS011;48747;50.250;18.848;2023-06-14T11:41:46;9.33;;;6.70;;
37355;SDS011;48747;50.250;18.848;2023-06-14T11:43:52;8.58;;;6.20;;
37355;SDS011;48747;50.250;18.848;2023-06-14T11:45:57;7.65;;;5.72;;
37355;SDS011;48747;50.250;18.848;2023-06-14T11:48:00;9.15;;;6.30;;
37355;SDS011;48747;50.250;18.848;2023-06-14T11:50:08;8.88;;;6.40;;
37355;SDS011;48747;50.250;18.848;2023-06-14T11:52:09;9.73;;;6.67;;
37355;SDS011;48747;50.250;18.848;2023-06-14T11:54:13;8.73;;;6.15;;
37355;SDS011;48747;50.250;18.848;2023-06-14T11:56:16;8.55;;;4.95;;
37355;SDS011;48747;50.250;18.848;2023-06-14T11:58:19;6.83;;;4.92;;
37355;SDS011;48747;50.250;18.848;2023-06-14T12:00:28;7.22;;;4.60;;
37355;SDS011;48747;50.250;18.848;2023-06-14T12:02:28;5.22;;;3.87;;
37355;SDS011;48747;50.250;18.848;2023-06-14T12:04:33;5.78;;;4.40;;
37355;SDS011;48747;50.250;18.848;2023-06-14T12:06:36;6.60;;;4.95;;
37355;SDS011;48747;50.250;18.848;2023-06-14T12:08:40;6.00;;;4.15;;
37355;SDS011;48747;50.250;18.848;2023-06-14T12:10:46;6.15;;;4.50;;
37355;SDS011;48747;50.250;18.848;2023-06-14T12:12:56;5.53;;;4.40;;
37355;SDS011;48747;50.250;18.848;2023-06-14T12:15:02;7.78;;;4.67;;
37355;SDS011;48747;50.250;18.848;2023-06-14T12:17:07;6.67;;;4.30;;
37355;SDS011;48747;50.250;18.848;2023-06-14T12:19:14;7.65;;;3.67;;
37355;SDS011;48747;50.250;18.848;2023-06-14T12:21:18;7.30;;;4.40;;